sensor_id;sensor_type;location;lat;lon;timestamp;pressure;altitude;pressure_sealevel;temperature;humidity
24422;BME280;12600;53.326;-6.298;2023-04-22T00:02:43;100523.78;;;13.19;74.26
24422;BME280;12600;53.326;-6.298;2023-04-22T00:05:33;100532.69;;;13.16;74.48
24422;BME280;12600;53.326;-6.298;2023-04-22T00:08:24;100508.81;;;13.16;74.37
24422;BME280;12600;53.326;-6.298;2023-04-22T00:11:13;100513.31;;;13.21;73.96
24422;BME280;12600;53.326;-6.298;2023-04-22T00:14:02;100504.13;;;13.17;74.33
24422;BME280;12600;53.326;-6.298;2023-04-22T00:16:52;100510.56;;;13.21;73.94
24422;BME280;12600;53.326;-6.298;2023-04-22T00:19:41;100507.81;;;13.21;74.36
24422;BME280;12600;53.326;-6.298;2023-04-22T00:22:30;100503.66;;;13.06;75.04
24422;BME280;12600;53.326;-6.298;2023-04-22T00:25:21;100509.44;;;13.13;74.93
24422;BME280;12600;53.326;-6.298;2023-04-22T00:28:10;100496.22;;;13.15;74.59
24422;BME280;12600;53.326;-6.298;2023-04-22T00:30:59;100483.94;;;13.13;74.91
24422;BME280;12600;53.326;-6.298;2023-04-22T00:33:50;100486.84;;;13.16;74.54
24422;BME280;12600;53.326;-6.298;2023-04-22T00:36:39;100476.84;;;13.21;74.33
24422;BME280;12600;53.326;-6.298;2023-04-22T00:39:28;100477.16;;;13.19;74.75
24422;BME280;12600;53.326;-6.298;2023-04-22T00:42:19;100471.84;;;13.14;74.79
24422;BME280;12600;53.326;-6.298;2023-04-22T00:45:11;100475.09;;;13.16;74.50
24422;BME280;12600;53.326;-6.298;2023-04-22T00:48:05;100470.44;;;13.08;74.72
24422;BME280;12600;53.326;-6.298;2023-04-22T00:50:55;100467.38;;;13.09;75.01
24422;BME280;12600;53.326;-6.298;2023-04-22T00:53:44;100465.47;;;13.01;75.25
24422;BME280;12600;53.326;-6.298;2023-04-22T00:56:35;100453.69;;;13.01;74.99
24422;BME280;12600;53.326;-6.298;2023-04-22T00:59:27;100465.81;;;13.00;74.93
24422;BME280;12600;53.326;-6.298;2023-04-22T01:02:17;100454.53;;;12.93;74.86
24422;BME280;12600;53.326;-6.298;2023-04-22T01:05:07;100453.28;;;12.81;75.49
24422;BME280;12600;53.326;-6.298;2023-04-22T01:07:57;100447.75;;;12.90;75.51
24422;BME280;12600;53.326;-6.298;2023-04-22T01:10:47;100438.00;;;12.72;76.20
24422;BME280;12600;53.326;-6.298;2023-04-22T01:13:36;100437.66;;;12.73;75.50
24422;BME280;12600;53.326;-6.298;2023-04-22T01:16:27;100443.16;;;12.73;75.23
24422;BME280;12600;53.326;-6.298;2023-04-22T01:19:18;100439.78;;;12.76;75.88
24422;BME280;12600;53.326;-6.298;2023-04-22T01:22:07;100429.66;;;12.68;76.11
24422;BME280;12600;53.326;-6.298;2023-04-22T01:25:00;100423.50;;;12.71;75.93
24422;BME280;12600;53.326;-6.298;2023-04-22T01:27:50;100417.06;;;12.67;76.27
24422;BME280;12600;53.326;-6.298;2023-04-22T01:30:39;100419.63;;;12.72;75.91
24422;BME280;12600;53.326;-6.298;2023-04-22T01:33:29;100412.41;;;12.68;76.41
24422;BME280;12600;53.326;-6.298;2023-04-22T01:36:19;100403.19;;;12.72;76.25
24422;BME280;12600;53.326;-6.298;2023-04-22T01:39:08;100399.47;;;12.77;76.02
24422;BME280;12600;53.326;-6.298;2023-04-22T01:41:59;100403.00;;;12.77;75.67
24422;BME280;12600;53.326;-6.298;2023-04-22T01:44:49;100405.75;;;12.77;76.20
24422;BME280;12600;53.326;-6.298;2023-04-22T01:47:38;100404.94;;;12.77;75.87
24422;BME280;12600;53.326;-6.298;2023-04-22T01:50:27;100408.00;;;12.75;76.26
24422;BME280;12600;53.326;-6.298;2023-04-22T01:53:16;100403.34;;;12.76;76.61
24422;BME280;12600;53.326;-6.298;2023-04-22T01:56:06;100409.63;;;12.76;76.53
24422;BME280;12600;53.326;-6.298;2023-04-22T01:58:57;100402.25;;;12.68;76.74
24422;BME280;12600;53.326;-6.298;2023-04-22T02:01:50;100405.78;;;12.69;76.63
24422;BME280;12600;53.326;-6.298;2023-04-22T02:04:40;100402.38;;;12.72;76.70
24422;BME280;12600;53.326;-6.298;2023-04-22T02:07:29;100390.47;;;12.59;76.92
24422;BME280;12600;53.326;-6.298;2023-04-22T02:10:18;100397.41;;;12.65;76.23
24422;BME280;12600;53.326;-6.298;2023-04-22T02:13:08;100393.69;;;12.70;76.57
24422;BME280;12600;53.326;-6.298;2023-04-22T02:15:59;100382.56;;;12.66;76.77
24422;BME280;12600;53.326;-6.298;2023-04-22T02:18:48;100377.06;;;12.66;76.22
24422;BME280;12600;53.326;-6.298;2023-04-22T02:21:38;100391.88;;;12.74;76.25
24422;BME280;12600;53.326;-6.298;2023-04-22T02:24:29;100371.34;;;12.50;76.71
24422;BME280;12600;53.326;-6.298;2023-04-22T02:27:19;100379.50;;;12.68;76.19
24422;BME280;12600;53.326;-6.298;2023-04-22T02:30:09;100375.47;;;12.65;76.25
24422;BME280;12600;53.326;-6.298;2023-04-22T02:33:00;100368.38;;;12.64;76.53
24422;BME280;12600;53.326;-6.298;2023-04-22T02:35:49;100365.19;;;12.62;76.61
24422;BME280;12600;53.326;-6.298;2023-04-22T02:38:38;100359.69;;;12.62;76.32
24422;BME280;12600;53.326;-6.298;2023-04-22T02:41:27;100359.03;;;12.65;76.01
24422;BME280;12600;53.326;-6.298;2023-04-22T02:44:17;100361.13;;;12.68;76.06
24422;BME280;12600;53.326;-6.298;2023-04-22T02:47:06;100363.88;;;12.68;75.84
24422;BME280;12600;53.326;-6.298;2023-04-22T02:49:57;100342.78;;;12.60;75.87
24422;BME280;12600;53.326;-6.298;2023-04-22T02:52:48;100348.81;;;12.74;75.59
24422;BME280;12600;53.326;-6.298;2023-04-22T02:55:40;100352.34;;;12.75;75.66
24422;BME280;12600;53.326;-6.298;2023-04-22T02:58:29;100349.31;;;12.76;75.93
24422;BME280;12600;53.326;-6.298;2023-04-22T03:01:19;100341.38;;;12.75;75.97
24422;BME280;12600;53.326;-6.298;2023-04-22T03:04:09;100340.94;;;12.73;75.78
24422;BME280;12600;53.326;-6.298;2023-04-22T03:07:02;100341.25;;;12.71;75.89
24422;BME280;12600;53.326;-6.298;2023-04-22T03:09:52;100339.94;;;12.77;75.38
24422;BME280;12600;53.326;-6.298;2023-04-22T03:12:43;100325.97;;;12.70;75.48
24422;BME280;12600;53.326;-6.298;2023-04-22T03:15:33;100330.31;;;12.71;75.84
24422;BME280;12600;53.326;-6.298;2023-04-22T03:18:22;100327.03;;;12.78;75.48
24422;BME280;12600;53.326;-6.298;2023-04-22T03:21:11;100323.28;;;12.82;75.53
24422;BME280;12600;53.326;-6.298;2023-04-22T03:24:02;100310.88;;;12.85;75.42
24422;BME280;12600;53.326;-6.298;2023-04-22T03:26:53;100314.41;;;12.85;75.11
24422;BME280;12600;53.326;-6.298;2023-04-22T03:29:43;100307.34;;;12.84;75.13
24422;BME280;12600;53.326;-6.298;2023-04-22T03:32:32;100300.03;;;12.88;74.98
24422;BME280;12600;53.326;-6.298;2023-04-22T03:35:41;100296.50;;;12.88;74.83
24422;BME280;12600;53.326;-6.298;2023-04-22T03:38:31;100288.59;;;12.86;75.16
24422;BME280;12600;53.326;-6.298;2023-04-22T03:41:22;100287.00;;;12.85;74.93
24422;BME280;12600;53.326;-6.298;2023-04-22T03:44:13;100273.69;;;12.75;75.25
24422;BME280;12600;53.326;-6.298;2023-04-22T03:47:04;100274.50;;;12.76;75.30
24422;BME280;12600;53.326;-6.298;2023-04-22T03:50:00;100270.78;;;12.72;75.62
24422;BME280;12600;53.326;-6.298;2023-04-22T03:52:52;100265.31;;;12.72;75.50
24422;BME280;12600;53.326;-6.298;2023-04-22T03:55:41;100247.13;;;12.67;75.59
24422;BME280;12600;53.326;-6.298;2023-04-22T03:58:34;100252.13;;;12.65;75.71
24422;BME280;12600;53.326;-6.298;2023-04-22T04:01:26;100243.25;;;12.68;75.50
24422;BME280;12600;53.326;-6.298;2023-04-22T04:04:20;100239.84;;;12.71;75.44
24422;BME280;12600;53.326;-6.298;2023-04-22T04:07:15;100228.19;;;12.53;75.64
24422;BME280;12600;53.326;-6.298;2023-04-22T04:10:06;100238.66;;;12.60;75.20
24422;BME280;12600;53.326;-6.298;2023-04-22T04:12:56;100240.09;;;12.57;75.15
24422;BME280;12600;53.326;-6.298;2023-04-22T04:15:49;100230.94;;;12.53;75.03
24422;BME280;12600;53.326;-6.298;2023-04-22T04:18:40;100229.34;;;12.52;74.94
24422;BME280;12600;53.326;-6.298;2023-04-22T04:21:30;100234.94;;;12.56;75.00
24422;BME280;12600;53.326;-6.298;2023-04-22T04:24:20;100234.94;;;12.56;75.36
24422;BME280;12600;53.326;-6.298;2023-04-22T04:27:13;100223.97;;;12.56;75.12
24422;BME280;12600;53.326;-6.298;2023-04-22T04:30:10;100220.63;;;12.50;75.36
24422;BME280;12600;53.326;-6.298;2023-04-22T04:33:08;100215.47;;;12.49;75.36
24422;BME280;12600;53.326;-6.298;2023-04-22T04:36:02;100207.13;;;12.45;75.17
24422;BME280;12600;53.326;-6.298;2023-04-22T04:38:54;100180.59;;;12.37;75.04
24422;BME280;12600;53.326;-6.298;2023-04-22T04:41:45;100192.03;;;12.39;75.58
24422;BME280;12600;53.326;-6.298;2023-04-22T04:44:36;100193.78;;;12.44;75.55
24422;BME280;12600;53.326;-6.298;2023-04-22T04:47:25;100182.81;;;12.44;75.47
24422;BME280;12600;53.326;-6.298;2023-04-22T04:50:24;100169.78;;;12.41;75.53
24422;BME280;12600;53.326;-6.298;2023-04-22T04:53:20;100149.72;;;12.28;75.37
24422;BME280;12600;53.326;-6.298;2023-04-22T04:56:09;100171.72;;;12.40;75.42
24422;BME280;12600;53.326;-6.298;2023-04-22T04:58:59;100152.47;;;12.28;75.58
24422;BME280;12600;53.326;-6.298;2023-04-22T05:01:49;100167.38;;;12.39;75.53
24422;BME280;12600;53.326;-6.298;2023-04-22T05:04:39;100167.72;;;12.38;75.47
24422;BME280;12600;53.326;-6.298;2023-04-22T05:07:30;100164.50;;;12.36;75.59
24422;BME280;12600;53.326;-6.298;2023-04-22T05:10:19;100151.91;;;12.35;75.41
24422;BME280;12600;53.326;-6.298;2023-04-22T05:13:09;100161.75;;;12.36;75.89
24422;BME280;12600;53.326;-6.298;2023-04-22T05:16:01;100159.66;;;12.32;75.86
24422;BME280;12600;53.326;-6.298;2023-04-22T05:18:51;100160.19;;;12.26;75.99
24422;BME280;12600;53.326;-6.298;2023-04-22T05:21:41;100149.03;;;12.10;76.91
24422;BME280;12600;53.326;-6.298;2023-04-22T05:24:31;100152.88;;;12.09;76.61
24422;BME280;12600;53.326;-6.298;2023-04-22T05:27:21;100152.19;;;12.21;76.39
24422;BME280;12600;53.326;-6.298;2023-04-22T05:30:10;100147.34;;;12.18;76.80
24422;BME280;12600;53.326;-6.298;2023-04-22T05:33:00;100161.53;;;12.20;76.61
24422;BME280;12600;53.326;-6.298;2023-04-22T05:35:50;100144.03;;;12.12;76.56
24422;BME280;12600;53.326;-6.298;2023-04-22T05:38:40;100153.78;;;12.22;76.90
24422;BME280;12600;53.326;-6.298;2023-04-22T05:41:31;100135.13;;;12.15;76.57
24422;BME280;12600;53.326;-6.298;2023-04-22T05:44:22;100146.03;;;12.24;76.63
24422;BME280;12600;53.326;-6.298;2023-04-22T05:47:11;100143.19;;;12.20;76.84
24422;BME280;12600;53.326;-6.298;2023-04-22T05:50:00;100150.72;;;12.23;76.74
24422;BME280;12600;53.326;-6.298;2023-04-22T05:53:16;100150.72;;;12.23;76.99
24422;BME280;12600;53.326;-6.298;2023-04-22T05:56:06;100140.75;;;12.19;76.85
24422;BME280;12600;53.326;-6.298;2023-04-22T05:58:57;100150.03;;;12.26;76.68
24422;BME280;12600;53.326;-6.298;2023-04-22T06:01:46;100144.44;;;12.23;76.31
24422;BME280;12600;53.326;-6.298;2023-04-22T06:04:39;100149.50;;;12.33;76.50
24422;BME280;12600;53.326;-6.298;2023-04-22T06:07:29;100150.53;;;12.28;76.97
24422;BME280;12600;53.326;-6.298;2023-04-22T06:10:18;100136.84;;;12.28;76.57
24422;BME280;12600;53.326;-6.298;2023-04-22T06:13:08;100137.13;;;12.36;76.70
24422;BME280;12600;53.326;-6.298;2023-04-22T06:15:59;100144.31;;;12.40;76.58
24422;BME280;12600;53.326;-6.298;2023-04-22T06:18:49;100137.03;;;12.44;76.70
24422;BME280;12600;53.326;-6.298;2023-04-22T06:21:40;100128.59;;;12.49;76.50
24422;BME280;12600;53.326;-6.298;2023-04-22T06:24:30;100118.66;;;12.45;76.51
24422;BME280;12600;53.326;-6.298;2023-04-22T06:27:19;100131.06;;;12.42;76.54
24422;BME280;12600;53.326;-6.298;2023-04-22T06:30:10;100130.53;;;12.49;76.54
24422;BME280;12600;53.326;-6.298;2023-04-22T06:33:01;100127.69;;;12.45;76.65
24422;BME280;12600;53.326;-6.298;2023-04-22T06:35:51;100126.81;;;12.53;76.17
24422;BME280;12600;53.326;-6.298;2023-04-22T06:38:41;100118.25;;;12.55;76.28
24422;BME280;12600;53.326;-6.298;2023-04-22T06:41:45;100115.84;;;12.53;76.16
24422;BME280;12600;53.326;-6.298;2023-04-22T06:44:55;100112.66;;;12.51;76.17
24422;BME280;12600;53.326;-6.298;2023-04-22T06:48:03;100107.63;;;12.53;75.70
24422;BME280;12600;53.326;-6.298;2023-04-22T06:51:06;100107.41;;;12.58;75.67
24422;BME280;12600;53.326;-6.298;2023-04-22T06:53:55;100098.88;;;12.60;75.41
24422;BME280;12600;53.326;-6.298;2023-04-22T06:56:45;100098.66;;;12.65;75.47
24422;BME280;12600;53.326;-6.298;2023-04-22T06:59:35;100094.31;;;12.64;75.15
24422;BME280;12600;53.326;-6.298;2023-04-22T07:02:24;100101.66;;;12.72;75.21
24422;BME280;12600;53.326;-6.298;2023-04-22T07:05:16;100102.09;;;12.74;74.96
24422;BME280;12600;53.326;-6.298;2023-04-22T07:08:06;100102.72;;;12.80;74.55
24422;BME280;12600;53.326;-6.298;2023-04-22T07:10:55;100096.09;;;12.81;74.69
24422;BME280;12600;53.326;-6.298;2023-04-22T07:13:57;100092.69;;;12.84;74.11
24422;BME280;12600;53.326;-6.298;2023-04-22T07:16:46;100101.22;;;12.82;73.87
24422;BME280;12600;53.326;-6.298;2023-04-22T07:19:36;100098.97;;;12.84;73.84
24422;BME280;12600;53.326;-6.298;2023-04-22T07:22:27;100101.72;;;12.97;73.79
24422;BME280;12600;53.326;-6.298;2023-04-22T07:25:17;100095.00;;;13.06;73.46
24422;BME280;12600;53.326;-6.298;2023-04-22T07:28:06;100095.25;;;13.13;73.27
24422;BME280;12600;53.326;-6.298;2023-04-22T07:30:55;100089.25;;;13.20;72.97
24422;BME280;12600;53.326;-6.298;2023-04-22T07:33:44;100088.00;;;13.30;72.92
24422;BME280;12600;53.326;-6.298;2023-04-22T07:36:34;100078.41;;;13.36;72.25
24422;BME280;12600;53.326;-6.298;2023-04-22T07:39:25;100075.31;;;13.37;72.54
24422;BME280;12600;53.326;-6.298;2023-04-22T07:42:14;100085.38;;;13.46;71.82
24422;BME280;12600;53.326;-6.298;2023-04-22T07:45:05;100057.16;;;13.45;71.84
24422;BME280;12600;53.326;-6.298;2023-04-22T07:47:55;100066.53;;;13.68;72.22
24422;BME280;12600;53.326;-6.298;2023-04-22T07:50:44;100076.94;;;13.75;70.35
24422;BME280;12600;53.326;-6.298;2023-04-22T07:53:34;100062.72;;;13.85;70.93
24422;BME280;12600;53.326;-6.298;2023-04-22T07:56:24;100066.16;;;13.94;70.51
24422;BME280;12600;53.326;-6.298;2023-04-22T07:59:14;100072.13;;;13.96;69.84
24422;BME280;12600;53.326;-6.298;2023-04-22T08:02:03;100068.66;;;13.99;70.07
24422;BME280;12600;53.326;-6.298;2023-04-22T08:04:52;100064.53;;;13.93;69.30
24422;BME280;12600;53.326;-6.298;2023-04-22T08:07:42;100065.03;;;13.83;68.10
24422;BME280;12600;53.326;-6.298;2023-04-22T08:10:31;100061.25;;;13.76;68.35
24422;BME280;12600;53.326;-6.298;2023-04-22T08:13:22;100060.00;;;13.61;67.98
24422;BME280;12600;53.326;-6.298;2023-04-22T08:16:11;100051.44;;;13.50;67.80
24422;BME280;12600;53.326;-6.298;2023-04-22T08:19:00;100048.56;;;13.34;67.61
24422;BME280;12600;53.326;-6.298;2023-04-22T08:21:50;100058.88;;;13.25;67.53
24422;BME280;12600;53.326;-6.298;2023-04-22T08:24:40;100050.72;;;13.16;68.02
24422;BME280;12600;53.326;-6.298;2023-04-22T08:27:29;100046.13;;;13.08;67.97
24422;BME280;12600;53.326;-6.298;2023-04-22T08:30:20;100049.53;;;13.05;68.40
24422;BME280;12600;53.326;-6.298;2023-04-22T08:33:10;100050.78;;;12.96;68.17
24422;BME280;12600;53.326;-6.298;2023-04-22T08:35:59;100045.84;;;12.89;68.21
24422;BME280;12600;53.326;-6.298;2023-04-22T08:38:50;100030.03;;;12.74;69.08
24422;BME280;12600;53.326;-6.298;2023-04-22T08:41:43;100030.03;;;12.62;69.42
24422;BME280;12600;53.326;-6.298;2023-04-22T08:44:34;100023.50;;;12.54;70.33
24422;BME280;12600;53.326;-6.298;2023-04-22T08:47:25;100021.63;;;12.46;70.26
24422;BME280;12600;53.326;-6.298;2023-04-22T08:50:15;100014.28;;;12.38;71.46
24422;BME280;12600;53.326;-6.298;2023-04-22T08:53:04;100020.19;;;12.27;72.03
24422;BME280;12600;53.326;-6.298;2023-04-22T08:55:55;100014.53;;;12.12;72.40
24422;BME280;12600;53.326;-6.298;2023-04-22T08:58:45;100021.53;;;12.00;73.25
24422;BME280;12600;53.326;-6.298;2023-04-22T09:01:35;100009.50;;;11.93;72.59
24422;BME280;12600;53.326;-6.298;2023-04-22T09:04:27;100013.25;;;11.88;74.55
24422;BME280;12600;53.326;-6.298;2023-04-22T09:07:22;100014.72;;;11.86;74.52
24422;BME280;12600;53.326;-6.298;2023-04-22T09:10:12;100008.94;;;11.78;75.31
24422;BME280;12600;53.326;-6.298;2023-04-22T09:13:03;100013.13;;;11.76;75.08
24422;BME280;12600;53.326;-6.298;2023-04-22T09:15:53;100006.25;;;11.70;76.18
24422;BME280;12600;53.326;-6.298;2023-04-22T09:18:46;100009.94;;;11.74;76.75
24422;BME280;12600;53.326;-6.298;2023-04-22T09:21:37;100010.66;;;11.62;77.33
24422;BME280;12600;53.326;-6.298;2023-04-22T09:24:27;100005.19;;;11.62;77.45
24422;BME280;12600;53.326;-6.298;2023-04-22T09:27:18;99992.84;;;11.56;77.83
24422;BME280;12600;53.326;-6.298;2023-04-22T09:30:09;100001.06;;;11.56;78.49
24422;BME280;12600;53.326;-6.298;2023-04-22T09:33:00;99990.75;;;11.53;77.69
24422;BME280;12600;53.326;-6.298;2023-04-22T09:35:50;99987.56;;;11.51;78.90
24422;BME280;12600;53.326;-6.298;2023-04-22T09:38:51;99987.56;;;11.51;78.54
24422;BME280;12600;53.326;-6.298;2023-04-22T09:41:41;99985.16;;;11.49;79.24
24422;BME280;12600;53.326;-6.298;2023-04-22T09:44:32;99979.25;;;11.39;78.64
24422;BME280;12600;53.326;-6.298;2023-04-22T09:47:22;99985.00;;;11.46;79.19
24422;BME280;12600;53.326;-6.298;2023-04-22T09:50:12;99994.84;;;11.47;78.61
24422;BME280;12600;53.326;-6.298;2023-04-22T09:53:03;99987.72;;;11.46;78.65
24422;BME280;12600;53.326;-6.298;2023-04-22T09:55:54;99993.69;;;11.48;78.45
24422;BME280;12600;53.326;-6.298;2023-04-22T09:58:43;99991.88;;;11.52;78.63
24422;BME280;12600;53.326;-6.298;2023-04-22T10:01:35;99994.50;;;11.48;78.58
24422;BME280;12600;53.326;-6.298;2023-04-22T10:04:26;99991.88;;;11.52;78.42
24422;BME280;12600;53.326;-6.298;2023-04-22T10:07:16;99993.97;;;11.55;78.77
24422;BME280;12600;53.326;-6.298;2023-04-22T10:10:08;99984.16;;;11.54;78.77
24422;BME280;12600;53.326;-6.298;2023-04-22T10:12:59;99977.94;;;11.45;78.65
24422;BME280;12600;53.326;-6.298;2023-04-22T10:15:51;99988.06;;;11.44;78.85
24422;BME280;12600;53.326;-6.298;2023-04-22T10:18:41;99987.56;;;11.51;79.19
24422;BME280;12600;53.326;-6.298;2023-04-22T10:21:31;99978.03;;;11.57;80.05
24422;BME280;12600;53.326;-6.298;2023-04-22T10:24:23;99990.22;;;11.60;79.57
24422;BME280;12600;53.326;-6.298;2023-04-22T10:27:13;99995.75;;;11.51;80.97
24422;BME280;12600;53.326;-6.298;2023-04-22T10:30:11;99997.06;;;11.45;79.91
24422;BME280;12600;53.326;-6.298;2023-04-22T10:33:36;99976.25;;;11.32;80.13
24422;BME280;12600;53.326;-6.298;2023-04-22T10:36:26;99976.72;;;11.34;80.84
24422;BME280;12600;53.326;-6.298;2023-04-22T10:39:16;99983.13;;;11.38;80.96
24422;BME280;12600;53.326;-6.298;2023-04-22T10:42:09;99983.03;;;11.26;80.24
24422;BME280;12600;53.326;-6.298;2023-04-22T10:45:01;99989.72;;;11.07;80.56
24422;BME280;12600;53.326;-6.298;2023-04-22T10:47:52;99980.94;;;10.93;80.82
24422;BME280;12600;53.326;-6.298;2023-04-22T10:50:41;99992.72;;;10.85;81.87
24422;BME280;12600;53.326;-6.298;2023-04-22T10:53:37;99986.94;;;10.78;82.10
24422;BME280;12600;53.326;-6.298;2023-04-22T10:56:27;99991.19;;;10.49;82.26
24422;BME280;12600;53.326;-6.298;2023-04-22T10:59:16;99992.19;;;10.36;82.45
24422;BME280;12600;53.326;-6.298;2023-04-22T11:02:07;99979.81;;;10.13;83.16
24422;BME280;12600;53.326;-6.298;2023-04-22T11:05:22;99971.63;;;9.95;84.28
24422;BME280;12600;53.326;-6.298;2023-04-22T11:08:18;99984.78;;;9.93;84.28
24422;BME280;12600;53.326;-6.298;2023-04-22T11:11:10;99972.75;;;9.86;85.36
24422;BME280;12600;53.326;-6.298;2023-04-22T11:14:00;99971.31;;;9.88;85.95
24422;BME280;12600;53.326;-6.298;2023-04-22T11:16:50;99974.84;;;9.97;85.95
24422;BME280;12600;53.326;-6.298;2023-04-22T11:19:40;99971.94;;;10.02;86.02
24422;BME280;12600;53.326;-6.298;2023-04-22T11:22:34;99977.25;;;9.99;86.05
24422;BME280;12600;53.326;-6.298;2023-04-22T11:25:24;99926.53;;;9.72;85.59
24422;BME280;12600;53.326;-6.298;2023-04-22T11:28:14;99970.34;;;10.01;85.92
24422;BME280;12600;53.326;-6.298;2023-04-22T11:31:06;99969.72;;;10.04;86.11
24422;BME280;12600;53.326;-6.298;2023-04-22T11:33:58;99977.09;;;10.13;86.40
24422;BME280;12600;53.326;-6.298;2023-04-22T11:36:47;99979.63;;;10.18;86.19
24422;BME280;12600;53.326;-6.298;2023-04-22T11:39:38;99977.69;;;10.18;86.85
24422;BME280;12600;53.326;-6.298;2023-04-22T11:42:48;99969.50;;;10.18;87.09
24422;BME280;12600;53.326;-6.298;2023-04-22T11:45:38;99970.34;;;10.19;86.42
24422;BME280;12600;53.326;-6.298;2023-04-22T11:48:27;99979.19;;;10.24;86.52
24422;BME280;12600;53.326;-6.298;2023-04-22T11:51:16;99975.31;;;10.25;86.75
24422;BME280;12600;53.326;-6.298;2023-04-22T11:54:06;99979.97;;;10.25;86.96
24422;BME280;12600;53.326;-6.298;2023-04-22T11:57:02;99971.47;;;10.26;86.71
24422;BME280;12600;53.326;-6.298;2023-04-22T11:59:58;99971.47;;;10.26;87.29
24422;BME280;12600;53.326;-6.298;2023-04-22T12:02:58;99966.97;;;10.22;87.07
24422;BME280;12600;53.326;-6.298;2023-04-22T12:05:52;99964.56;;;10.20;86.90
24422;BME280;12600;53.326;-6.298;2023-04-22T12:08:41;99965.69;;;10.19;86.89
24422;BME280;12600;53.326;-6.298;2023-04-22T12:11:31;99969.22;;;10.28;87.38
24422;BME280;12600;53.326;-6.298;2023-04-22T12:14:30;99972.09;;;10.32;87.22
24422;BME280;12600;53.326;-6.298;2023-04-22T12:17:22;99960.06;;;10.33;87.47
24422;BME280;12600;53.326;-6.298;2023-04-22T12:20:12;99965.34;;;10.38;87.40
24422;BME280;12600;53.326;-6.298;2023-04-22T12:23:02;99965.50;;;10.33;86.54
24422;BME280;12600;53.326;-6.298;2023-04-22T12:25:51;99964.41;;;10.43;87.85
24422;BME280;12600;53.326;-6.298;2023-04-22T12:28:41;99964.06;;;10.44;87.40
24422;BME280;12600;53.326;-6.298;2023-04-22T12:31:32;99960.34;;;10.49;87.45
24422;BME280;12600;53.326;-6.298;2023-04-22T12:34:22;99961.44;;;10.56;87.57
24422;BME280;12600;53.326;-6.298;2023-04-22T12:37:11;99947.63;;;10.61;87.88
24422;BME280;12600;53.326;-6.298;2023-04-22T12:40:02;99958.34;;;10.67;88.01
24422;BME280;12600;53.326;-6.298;2023-04-22T12:42:52;99965.91;;;10.70;87.41
24422;BME280;12600;53.326;-6.298;2023-04-22T12:45:41;99951.28;;;10.65;87.42
24422;BME280;12600;53.326;-6.298;2023-04-22T12:48:32;99955.09;;;10.82;88.28
24422;BME280;12600;53.326;-6.298;2023-04-22T12:51:22;99957.94;;;10.94;88.18
24422;BME280;12600;53.326;-6.298;2023-04-22T12:54:12;99963.03;;;11.04;87.89
24422;BME280;12600;53.326;-6.298;2023-04-22T12:57:01;99966.38;;;11.10;87.16
24422;BME280;12600;53.326;-6.298;2023-04-22T12:59:50;99953.06;;;11.08;86.92
24422;BME280;12600;53.326;-6.298;2023-04-22T13:02:41;99951.16;;;11.00;86.99
24422;BME280;12600;53.326;-6.298;2023-04-22T13:05:32;99947.13;;;10.98;86.44
24422;BME280;12600;53.326;-6.298;2023-04-22T13:08:22;99952.31;;;10.90;84.67
24422;BME280;12600;53.326;-6.298;2023-04-22T13:11:11;99957.28;;;10.97;85.50
24422;BME280;12600;53.326;-6.298;2023-04-22T13:14:00;99955.84;;;11.00;85.26
24422;BME280;12600;53.326;-6.298;2023-04-22T13:16:50;99949.06;;;10.97;85.83
24422;BME280;12600;53.326;-6.298;2023-04-22T13:19:39;99950.97;;;11.05;86.75
24422;BME280;12600;53.326;-6.298;2023-04-22T13:22:30;99942.75;;;11.05;85.87
24422;BME280;12600;53.326;-6.298;2023-04-22T13:25:20;99949.94;;;11.18;86.27
24422;BME280;12600;53.326;-6.298;2023-04-22T13:28:09;99948.69;;;11.16;84.71
24422;BME280;12600;53.326;-6.298;2023-04-22T13:30:59;99949.84;;;11.06;83.64
24422;BME280;12600;53.326;-6.298;2023-04-22T13:33:48;99946.75;;;11.16;85.58
24422;BME280;12600;53.326;-6.298;2023-04-22T13:36:37;99937.75;;;11.16;85.65
24422;BME280;12600;53.326;-6.298;2023-04-22T13:39:28;99942.88;;;11.17;85.38
24422;BME280;12600;53.326;-6.298;2023-04-22T13:42:18;99941.50;;;11.03;84.75
24422;BME280;12600;53.326;-6.298;2023-04-22T13:45:08;99944.53;;;11.10;85.01
24422;BME280;12600;53.326;-6.298;2023-04-22T13:47:58;99946.25;;;11.14;85.82
24422;BME280;12600;53.326;-6.298;2023-04-22T13:50:47;99941.91;;;11.13;85.61
24422;BME280;12600;53.326;-6.298;2023-04-22T13:53:36;99936.88;;;11.24;86.83
24422;BME280;12600;53.326;-6.298;2023-04-22T13:56:27;99934.47;;;11.23;86.30
24422;BME280;12600;53.326;-6.298;2023-04-22T13:59:17;99945.28;;;11.19;85.33
24422;BME280;12600;53.326;-6.298;2023-04-22T14:02:07;99939.75;;;11.28;86.63
24422;BME280;12600;53.326;-6.298;2023-04-22T14:04:56;99935.88;;;11.29;85.93
24422;BME280;12600;53.326;-6.298;2023-04-22T14:07:46;99934.63;;;11.26;86.07
24422;BME280;12600;53.326;-6.298;2023-04-22T14:10:35;99940.22;;;11.30;85.27
24422;BME280;12600;53.326;-6.298;2023-04-22T14:13:26;99926.94;;;11.19;83.69
24422;BME280;12600;53.326;-6.298;2023-04-22T14:16:15;99927.69;;;11.29;85.48
24422;BME280;12600;53.326;-6.298;2023-04-22T14:19:06;99931.03;;;11.34;85.45
24422;BME280;12600;53.326;-6.298;2023-04-22T14:21:56;99922.44;;;11.44;85.60
24422;BME280;12600;53.326;-6.298;2023-04-22T14:24:45;99923.91;;;11.42;83.62
24422;BME280;12600;53.326;-6.298;2023-04-22T14:27:35;99923.03;;;11.50;85.04
24422;BME280;12600;53.326;-6.298;2023-04-22T14:30:26;99921.03;;;11.59;85.19
24422;BME280;12600;53.326;-6.298;2023-04-22T14:33:15;99913.97;;;11.58;83.66
24422;BME280;12600;53.326;-6.298;2023-04-22T14:36:05;99921.13;;;11.71;85.12
24422;BME280;12600;53.326;-6.298;2023-04-22T14:38:55;99923.47;;;11.82;85.76
24422;BME280;12600;53.326;-6.298;2023-04-22T14:41:44;99919.97;;;11.93;86.50
24422;BME280;12600;53.326;-6.298;2023-04-22T14:44:34;99928.44;;;12.00;86.32
24422;BME280;12600;53.326;-6.298;2023-04-22T14:47:25;99926.66;;;12.04;86.59